createdAt,value
2023-11-19T00:01:53.131Z,2.29
2023-11-19T00:04:55.601Z,2.21
2023-11-19T00:07:57.597Z,2.27
2023-11-19T00:10:59.518Z,2.27
2023-11-19T00:14:01.423Z,2.25
2023-11-19T00:17:05.277Z,2.23
2023-11-19T00:20:08.923Z,2.27
2023-11-19T00:23:10.804Z,2.19
2023-11-19T00:26:13.672Z,2.24
2023-11-19T00:29:17.213Z,2.22
2023-11-19T00:32:19.742Z,1.35
2023-11-19T00:35:21.856Z,2.11
2023-11-19T00:38:23.792Z,2.06
2023-11-19T00:41:26.810Z,2.01
2023-11-19T00:44:28.812Z,1.88
2023-11-19T00:47:32.449Z,1.82
2023-11-19T00:50:37.255Z,1.91
2023-11-19T00:53:40.561Z,1.92
2023-11-19T00:56:42.445Z,1.87
2023-11-19T00:59:44.746Z,1.57
2023-11-19T01:02:47.830Z,1.78
2023-11-19T01:05:49.840Z,1.71
2023-11-19T01:08:51.726Z,1.70
2023-11-19T01:11:55.337Z,1.62
2023-11-19T01:14:59.136Z,1.50
2023-11-19T01:18:03.354Z,1.53
2023-11-19T01:21:06.059Z,1.42
2023-11-19T01:24:10.710Z,1.56
2023-11-19T01:27:13.433Z,1.50
2023-11-19T01:30:15.369Z,1.57
2023-11-19T01:33:17.265Z,1.55
2023-11-19T01:36:19.249Z,1.56
2023-11-19T01:39:22.353Z,1.54
2023-11-19T01:42:26.677Z,1.34
2023-11-19T01:45:30.499Z,1.52
2023-11-19T01:48:40.548Z,1.52
2023-11-19T01:51:43.228Z,1.51
2023-11-19T01:54:46.304Z,1.51
2023-11-19T01:57:50.323Z,1.27
2023-11-19T02:00:53.247Z,1.29
2023-11-19T02:03:55.359Z,1.22
2023-11-19T02:06:59.584Z,1.46
2023-11-19T02:10:03.753Z,1.46
2023-11-19T02:13:07.658Z,1.37
2023-11-19T02:16:10.830Z,1.39
2023-11-19T02:19:12.837Z,1.50
2023-11-19T02:22:14.806Z,1.34
2023-11-19T02:25:26.563Z,1.31
2023-11-19T02:28:28.747Z,1.15
2023-11-19T02:31:30.708Z,0.98
2023-11-19T02:34:32.738Z,1.04
2023-11-19T02:37:40.172Z,1.09
2023-11-19T02:40:42.329Z,1.10
2023-11-19T02:43:44.276Z,1.19
2023-11-19T02:46:46.282Z,1.09
2023-11-19T02:49:49.134Z,1.18
2023-11-19T02:52:51.828Z,1.16
2023-11-19T02:55:53.762Z,1.16
2023-11-19T02:58:55.654Z,1.16
2023-11-19T03:01:58.743Z,0.83
2023-11-19T03:05:01.227Z,1.11
2023-11-19T03:08:04.267Z,1.16
2023-11-19T03:11:06.806Z,1.10
2023-11-19T03:14:08.978Z,1.09
2023-11-19T03:17:11.068Z,1.02
2023-11-19T03:20:16.491Z,1.02
2023-11-19T03:23:18.355Z,0.86
2023-11-19T03:26:20.252Z,1.10
2023-11-19T03:29:22.180Z,1.10
2023-11-19T03:32:24.243Z,1.13
2023-11-19T03:35:26.194Z,1.12
2023-11-19T03:38:28.141Z,0.99
2023-11-19T03:41:41.668Z,1.05
2023-11-19T03:44:44.165Z,0.97
2023-11-19T03:47:46.342Z,0.94
2023-11-19T03:50:48.192Z,0.66
2023-11-19T03:53:50.176Z,0.73
2023-11-19T03:56:52.355Z,0.69
2023-11-19T03:59:54.269Z,0.41
2023-11-19T04:02:56.684Z,0.81
2023-11-19T04:05:58.627Z,0.84
2023-11-19T04:09:00.493Z,0.63
2023-11-19T04:12:02.820Z,0.87
2023-11-19T04:15:05.808Z,0.84
2023-11-19T04:18:08.398Z,0.79
2023-11-19T04:21:10.823Z,0.80
2023-11-19T04:24:13.677Z,0.68
2023-11-19T04:27:17.154Z,0.50
2023-11-19T04:30:19.830Z,0.72
2023-11-19T04:33:21.685Z,0.70
2023-11-19T04:36:26.058Z,0.69
2023-11-19T04:39:28.101Z,0.70
2023-11-19T04:42:30.800Z,0.69
2023-11-19T04:45:33.457Z,0.73
2023-11-19T04:51:44.337Z,0.63
2023-11-19T04:54:46.374Z,0.60
2023-11-19T04:57:48.845Z,0.57
2023-11-19T05:00:50.698Z,0.57
2023-11-19T05:03:52.877Z,0.47
2023-11-19T05:06:54.927Z,0.66
2023-11-19T05:09:56.956Z,0.72
2023-11-19T05:12:58.923Z,0.68
2023-11-19T05:16:00.999Z,0.59
2023-11-19T05:19:02.960Z,0.48
2023-11-19T05:22:05.116Z,0.57
2023-11-19T05:25:07.481Z,0.45
2023-11-19T05:28:09.377Z,0.41
2023-11-19T05:31:11.438Z,0.72
2023-11-19T05:34:16.175Z,0.76
2023-11-19T05:37:18.180Z,0.66
2023-11-19T05:40:21.890Z,0.80
2023-11-19T05:43:23.761Z,0.51
2023-11-19T05:46:27.112Z,0.78
2023-11-19T05:49:29.159Z,0.73
2023-11-19T05:52:34.718Z,0.84
2023-11-19T05:55:38.936Z,0.73
2023-11-19T05:58:41.650Z,0.75
2023-11-19T06:01:43.663Z,0.75
2023-11-19T06:04:48.987Z,0.58
2023-11-19T06:07:52.559Z,0.73
2023-11-19T06:10:54.559Z,0.77
2023-11-19T06:13:57.486Z,0.62
2023-11-19T06:17:00.057Z,0.82
2023-11-19T06:20:02.147Z,0.87
2023-11-19T06:23:04.113Z,0.98
2023-11-19T06:26:06.382Z,1.09
2023-11-19T06:29:08.332Z,1.16
2023-11-19T06:35:15.194Z,1.34
2023-11-19T06:38:17.189Z,1.32
2023-11-19T06:41:19.207Z,0.91
2023-11-19T06:44:22.096Z,1.31
2023-11-19T06:47:27.811Z,1.27
2023-11-19T06:50:29.820Z,1.32
2023-11-19T06:53:31.759Z,1.40
2023-11-19T06:56:36.573Z,1.47
2023-11-19T06:59:38.960Z,1.61
2023-11-19T07:02:41.080Z,1.71
2023-11-19T07:05:43.295Z,1.83
2023-11-19T07:08:48.584Z,1.62
2023-11-19T07:11:53.151Z,2.00
2023-11-19T07:14:56.393Z,2.03
2023-11-19T07:21:06.083Z,2.13
2023-11-19T07:24:08.521Z,2.13
2023-11-19T07:27:10.453Z,2.09
2023-11-19T07:30:12.540Z,2.17
2023-11-19T07:33:15.050Z,2.28
2023-11-19T07:36:18.228Z,2.31
2023-11-19T07:39:22.078Z,2.31
2023-11-19T07:42:25.141Z,2.30
2023-11-19T07:45:28.562Z,2.38
2023-11-19T07:48:30.554Z,2.42
2023-11-19T07:51:32.726Z,2.58
2023-11-19T07:54:35.018Z,2.63
2023-11-19T07:57:37.878Z,2.70
2023-11-19T08:00:40.048Z,2.74
2023-11-19T08:06:59.417Z,2.78
2023-11-19T08:10:01.454Z,2.82
2023-11-19T08:13:03.397Z,2.92
2023-11-19T08:16:05.803Z,2.92
2023-11-19T08:19:09.817Z,2.51
2023-11-19T08:22:11.718Z,2.51
2023-11-19T08:25:14.267Z,2.81
2023-11-19T08:28:16.332Z,2.83
2023-11-19T08:31:18.268Z,2.92
2023-11-19T08:34:20.796Z,2.68
2023-11-19T08:37:23.980Z,3.07
2023-11-19T08:40:29.541Z,3.17
2023-11-19T08:43:33.102Z,3.39
2023-11-19T08:46:35.060Z,3.51
2023-11-19T08:49:37.353Z,3.39
2023-11-19T08:52:39.485Z,3.77
2023-11-19T08:55:41.476Z,3.81
2023-11-19T08:58:43.332Z,3.80
2023-11-19T09:01:46.260Z,4.13
2023-11-19T09:04:49.744Z,4.18
2023-11-19T09:07:52.748Z,4.32
2023-11-19T09:10:54.625Z,4.39
2023-11-19T09:13:56.589Z,4.51
2023-11-19T09:16:59.361Z,4.75
2023-11-19T09:20:01.209Z,4.85
2023-11-19T09:23:03.199Z,4.92
2023-11-19T09:26:06.506Z,4.91
2023-11-19T09:29:12.557Z,5.05
2023-11-19T09:32:14.614Z,4.97
2023-11-19T09:35:17.358Z,5.01
2023-11-19T09:38:19.298Z,5.13
2023-11-19T09:41:21.356Z,5.18
2023-11-19T09:44:24.437Z,5.31
2023-11-19T09:47:29.053Z,5.31
2023-11-19T09:50:32.341Z,5.32
2023-11-19T09:53:35.400Z,5.28
2023-11-19T09:56:39.006Z,5.40
2023-11-19T09:59:41.901Z,5.42
2023-11-19T10:02:48.164Z,5.52
2023-11-19T10:05:50.441Z,5.38
2023-11-19T10:08:52.474Z,5.59
2023-11-19T10:11:54.376Z,5.57
2023-11-19T10:14:58.202Z,5.55
2023-11-19T10:18:00.544Z,5.44
2023-11-19T10:21:02.489Z,5.36
2023-11-19T10:24:05.322Z,5.20
2023-11-19T10:27:10.606Z,5.22
2023-11-19T10:30:13.219Z,5.07
2023-11-19T10:33:21.246Z,5.16
2023-11-19T10:36:25.370Z,5.05
2023-11-19T10:39:56.400Z,5.10
2023-11-19T10:43:04.995Z,5.07
2023-11-19T10:46:12.052Z,5.02
2023-11-19T10:49:14.137Z,4.99
2023-11-19T10:52:22.932Z,5.05
2023-11-19T10:55:28.985Z,5.06
2023-11-19T10:58:34.611Z,5.03
2023-11-19T11:01:45.028Z,5.10
2023-11-19T11:04:49.104Z,5.09
2023-11-19T11:07:53.582Z,4.42
2023-11-19T11:10:58.029Z,4.93
2023-11-19T11:14:03.231Z,4.82
2023-11-19T11:17:09.091Z,5.10
2023-11-19T11:20:11.727Z,4.99
2023-11-19T11:23:35.349Z,4.70
2023-11-19T11:27:09.841Z,4.91
2023-11-19T11:30:20.354Z,4.74
2023-11-19T11:33:41.940Z,4.44
2023-11-19T11:37:08.921Z,4.65
2023-11-19T11:40:17.221Z,4.59
2023-11-19T11:43:45.395Z,4.58
2023-11-19T11:46:55.419Z,4.58
2023-11-19T11:50:06.137Z,4.57
2023-11-19T11:53:18.578Z,4.59
2023-11-19T11:56:20.598Z,4.54
2023-11-19T11:59:24.998Z,4.60
2023-11-19T12:02:27.459Z,4.57
2023-11-19T12:05:30.792Z,4.54
2023-11-19T12:08:53.286Z,4.57
2023-11-19T12:12:14.285Z,4.40
2023-11-19T12:15:16.349Z,4.48
2023-11-19T12:18:21.048Z,4.59
2023-11-19T12:21:31.093Z,4.67
2023-11-19T12:24:33.351Z,4.72
2023-11-19T12:27:35.356Z,4.60
2023-11-19T12:30:37.398Z,4.59
2023-11-19T12:33:39.478Z,4.44
2023-11-19T12:36:42.327Z,4.57
2023-11-19T12:39:45.108Z,4.49
2023-11-19T12:42:48.276Z,4.52
2023-11-19T12:45:50.252Z,4.48
2023-11-19T12:48:53.150Z,4.41
2023-11-19T12:51:55.440Z,4.31
2023-11-19T12:54:58.873Z,4.16
2023-11-19T12:58:01.144Z,4.11
2023-11-19T13:01:08.335Z,4.04
2023-11-19T13:04:20.699Z,3.93
2023-11-19T13:07:23.261Z,3.92
2023-11-19T13:10:25.240Z,4.05
2023-11-19T13:13:27.167Z,3.96
2023-11-19T13:16:30.221Z,3.66
2023-11-19T13:19:32.316Z,3.89
2023-11-19T13:22:34.166Z,3.91
2023-11-19T13:25:36.081Z,3.84
2023-11-19T13:28:38.727Z,3.63
2023-11-19T13:31:40.771Z,3.48
2023-11-19T13:34:42.759Z,3.55
2023-11-19T13:37:45.945Z,3.29
2023-11-19T13:40:48.082Z,3.52
2023-11-19T13:43:50.047Z,3.36
2023-11-19T13:46:52.249Z,3.17
2023-11-19T13:49:54.172Z,3.41
2023-11-19T13:52:56.297Z,3.50
2023-11-19T13:55:58.194Z,3.16
2023-11-19T13:59:00.054Z,3.45
2023-11-19T14:02:01.958Z,3.26
2023-11-19T14:05:04.682Z,3.56
2023-11-19T14:08:20.050Z,3.44
2023-11-19T14:11:27.999Z,3.41
2023-11-19T14:14:30.007Z,3.41
2023-11-19T14:17:31.936Z,3.17
2023-11-19T14:20:34.490Z,3.22
2023-11-19T14:23:36.488Z,3.27
2023-11-19T14:26:38.434Z,3.15
2023-11-19T14:29:41.544Z,2.92
2023-11-19T14:32:48.053Z,3.12
2023-11-19T14:35:50.038Z,3.13
2023-11-19T14:38:52.111Z,2.86
2023-11-19T14:41:55.122Z,2.90
2023-11-19T14:44:56.994Z,3.06
2023-11-19T14:47:58.935Z,2.85
2023-11-19T14:51:00.992Z,3.03
2023-11-19T14:54:03.116Z,2.97
2023-11-19T14:57:05.273Z,2.54
2023-11-19T15:00:14.401Z,2.96
2023-11-19T15:03:17.756Z,2.78
2023-11-19T15:06:19.709Z,2.76
2023-11-19T15:09:22.381Z,2.79
2023-11-19T15:12:24.469Z,2.52
2023-11-19T15:18:31.819Z,2.77
2023-11-19T15:21:33.844Z,2.73
2023-11-19T15:24:38.153Z,2.60
2023-11-19T15:27:40.075Z,2.72
2023-11-19T15:30:42.610Z,2.66
2023-11-19T15:33:44.545Z,2.76
2023-11-19T15:36:47.759Z,2.69
2023-11-19T15:39:52.347Z,2.65
2023-11-19T15:42:56.391Z,2.74
2023-11-19T15:45:58.309Z,2.77
2023-11-19T15:49:00.327Z,2.66
2023-11-19T15:52:02.346Z,2.67
2023-11-19T15:55:04.534Z,2.79
2023-11-19T15:58:07.666Z,2.69
2023-11-19T16:01:09.873Z,2.78
2023-11-19T16:04:11.939Z,2.75
2023-11-19T16:07:15.321Z,2.62
2023-11-19T16:10:23.938Z,2.68
2023-11-19T16:13:27.857Z,2.68
2023-11-19T16:16:29.830Z,2.77
2023-11-19T16:19:32.148Z,2.84
2023-11-19T16:22:34.867Z,2.81
2023-11-19T16:25:38.381Z,2.68
2023-11-19T16:28:40.713Z,2.84
2023-11-19T16:31:44.424Z,2.81
2023-11-19T16:34:49.019Z,2.72
2023-11-19T16:37:51.380Z,2.74
2023-11-19T16:40:53.805Z,2.68
2023-11-19T16:43:58.113Z,2.71
2023-11-19T16:47:00.059Z,2.68
2023-11-19T16:50:02.268Z,2.60
2023-11-19T16:53:05.688Z,2.61
2023-11-19T16:56:07.848Z,2.48
2023-11-19T16:59:09.829Z,2.56
2023-11-19T17:02:14.478Z,2.41
2023-11-19T17:05:16.591Z,2.36
2023-11-19T17:08:18.535Z,2.39
2023-11-19T17:11:20.514Z,2.30
2023-11-19T17:14:39.889Z,2.33
2023-11-19T17:17:42.785Z,2.13
2023-11-19T17:20:44.813Z,2.15
2023-11-19T17:23:46.697Z,2.15
2023-11-19T17:26:48.813Z,1.92
2023-11-19T17:29:50.730Z,2.02
2023-11-19T17:32:52.746Z,2.00
2023-11-19T17:35:55.818Z,1.82
2023-11-19T17:38:57.931Z,1.97
2023-11-19T17:42:00.028Z,1.93
2023-11-19T17:45:02.156Z,1.90
2023-11-19T17:48:04.428Z,1.90
2023-11-19T17:51:07.976Z,1.87
2023-11-19T17:54:11.279Z,1.88
2023-11-19T17:57:14.312Z,1.82
2023-11-19T18:00:17.226Z,1.77
2023-11-19T18:03:19.585Z,1.78
2023-11-19T18:06:21.568Z,1.73
2023-11-19T18:09:23.557Z,1.74
2023-11-19T18:12:25.418Z,1.71
2023-11-19T18:15:27.418Z,1.64
2023-11-19T18:18:29.406Z,1.66
2023-11-19T18:21:32.633Z,1.65
2023-11-19T18:24:37.428Z,1.51
2023-11-19T18:27:39.609Z,1.49
2023-11-19T18:30:41.572Z,1.40
2023-11-19T18:33:43.588Z,1.46
2023-11-19T18:36:45.667Z,1.43
2023-11-19T18:39:49.749Z,1.44
2023-11-19T18:42:54.083Z,1.46
2023-11-19T18:45:57.563Z,1.49
2023-11-19T18:49:00.714Z,1.46
2023-11-19T18:52:03.441Z,1.51
2023-11-19T18:55:07.196Z,1.52
2023-11-19T18:58:09.409Z,1.23
2023-11-19T19:01:14.992Z,1.53
2023-11-19T19:04:17.875Z,1.50
2023-11-19T19:07:21.626Z,1.52
2023-11-19T19:10:23.847Z,1.55
2023-11-19T19:13:26.336Z,1.58
2023-11-19T19:16:28.621Z,1.60
2023-11-19T19:19:30.687Z,1.58
2023-11-19T19:22:32.589Z,1.57
2023-11-19T19:25:34.477Z,1.60
2023-11-19T19:28:39.719Z,0.88
2023-11-19T19:31:41.676Z,1.66
2023-11-19T19:34:43.884Z,1.69
2023-11-19T19:37:45.869Z,1.55
2023-11-19T19:40:48.344Z,1.81
2023-11-19T19:43:50.988Z,1.84
2023-11-19T19:46:53.043Z,1.86
2023-11-19T19:49:54.884Z,1.75
2023-11-19T19:52:56.821Z,1.81
2023-11-19T19:55:58.723Z,1.84
2023-11-19T19:59:00.884Z,1.46
2023-11-19T20:02:03.197Z,1.75
2023-11-19T20:05:12.327Z,1.49
2023-11-19T20:08:14.558Z,1.82
2023-11-19T20:11:18.837Z,1.88
2023-11-19T20:14:24.295Z,1.71
2023-11-19T20:17:26.647Z,1.90
2023-11-19T20:20:28.769Z,1.89
2023-11-19T20:23:30.892Z,1.91
2023-11-19T20:26:32.964Z,1.83
2023-11-19T20:29:34.956Z,1.82
2023-11-19T20:32:37.848Z,1.88
2023-11-19T20:35:40.294Z,1.79
2023-11-19T20:38:42.719Z,1.83
2023-11-19T20:41:44.616Z,1.83
2023-11-19T20:44:46.748Z,1.82
2023-11-19T20:47:50.943Z,1.78
2023-11-19T20:50:53.394Z,1.76
2023-11-19T20:53:55.355Z,1.88
2023-11-19T20:56:57.351Z,1.94
2023-11-19T20:59:59.387Z,1.90
2023-11-19T21:03:01.693Z,1.68
2023-11-19T21:06:05.314Z,1.55
2023-11-19T21:09:11.312Z,1.97
2023-11-19T21:12:13.836Z,1.77
2023-11-19T21:15:15.748Z,1.68
2023-11-19T21:18:19.225Z,1.94
2023-11-19T21:21:22.495Z,1.97
2023-11-19T21:24:25.691Z,2.04
2023-11-19T21:27:31.092Z,2.09
2023-11-19T21:30:33.276Z,2.10
2023-11-19T21:33:35.246Z,1.89
2023-11-19T21:36:37.344Z,2.16
2023-11-19T21:39:40.933Z,2.17
2023-11-19T21:42:44.084Z,2.12
2023-11-19T21:45:47.183Z,2.14
2023-11-19T21:48:49.781Z,2.17
2023-11-19T21:51:51.924Z,2.26
2023-11-19T21:54:54.982Z,2.07
2023-11-19T21:57:58.341Z,2.01
2023-11-19T22:01:02.511Z,2.25
2023-11-19T22:04:05.864Z,2.22
2023-11-19T22:07:09.564Z,2.29
2023-11-19T22:10:12.767Z,2.22
2023-11-19T22:13:15.315Z,2.39
2023-11-19T22:16:18.304Z,2.41
2023-11-19T22:19:20.806Z,2.44
2023-11-19T22:22:25.441Z,2.29
2023-11-19T22:25:30.818Z,2.42
2023-11-19T22:28:34.420Z,2.39
2023-11-19T22:31:36.585Z,2.49
2023-11-19T22:34:38.689Z,2.43
2023-11-19T22:37:41.245Z,2.58
2023-11-19T22:40:43.582Z,2.45
2023-11-19T22:43:47.174Z,2.47
2023-11-19T22:46:51.163Z,2.60
2023-11-19T22:49:57.970Z,2.54
2023-11-19T22:53:08.781Z,2.50
2023-11-19T22:56:13.704Z,2.50
2023-11-19T22:59:16.710Z,2.45
2023-11-19T23:02:20.185Z,2.36
2023-11-19T23:05:29.744Z,2.39
2023-11-19T23:08:32.178Z,2.43
2023-11-19T23:11:34.605Z,2.35
2023-11-19T23:14:36.545Z,2.48
2023-11-19T23:17:38.709Z,2.50
2023-11-19T23:20:41.263Z,2.49
2023-11-19T23:23:43.882Z,2.60
2023-11-19T23:26:45.851Z,2.60
2023-11-19T23:29:49.238Z,2.57
2023-11-19T23:32:53.535Z,2.55
2023-11-19T23:35:55.469Z,2.58
2023-11-19T23:38:57.464Z,2.64
2023-11-19T23:42:04.294Z,2.52
2023-11-19T23:45:06.716Z,2.41
2023-11-19T23:48:09.034Z,2.53
2023-11-19T23:51:11.359Z,2.57
2023-11-19T23:54:13.775Z,2.57
2023-11-19T23:57:16.092Z,2.60
